Time;durP1;ratioP1;P1;durP2;ratioP2;P2;SDS_P1;SDS_P2;PMS_P1;PMS_P2;Temp;Humidity;BMP_temperature;BMP_pressure;BME280_temperature;BME280_humidity;BME280_pressure;Samples;Min_cycle;Max_cycle;Signal;HPM_P1;HPM_P2
2022/11/17 00:01:58;;;;;;;19.52;5.05;;;8.60;74.80;;;;;;5105073;28;20030;-61
2022/11/17 00:04:29;;;;;;;29.92;5.40;;;8.60;74.90;;;;;;5083974;28;20609;-59
2022/11/17 00:06:56;;;;;;;26.60;4.95;;;8.60;75.00;;;;;;5103658;28;20032;-61
2022/11/17 00:09:22;;;;;;;24.48;5.22;;;8.70;75.10;;;;;;5103004;28;20032;-58
2022/11/17 00:14:35;;;;;;;20.75;5.30;;;8.70;75.10;;;;;;5103961;28;20035;-60
2022/11/17 00:17:06;;;;;;;14.57;5.03;;;8.70;75.10;;;;;;5103705;28;20116;-60
2022/11/17 00:22:16;;;;;;;17.77;6.20;;;8.70;74.90;;;;;;5110389;28;20039;-59
2022/11/17 00:24:41;;;;;;;18.27;5.50;;;8.70;74.60;;;;;;5103448;28;20028;-61
2022/11/17 00:27:07;;;;;;;35.20;5.65;;;8.80;74.80;;;;;;5108269;28;20035;-58
2022/11/17 00:29:33;;;;;;;26.45;5.97;;;8.80;74.80;;;;;;5090636;28;20040;-60
2022/11/17 00:34:43;;;;;;;9.90;5.50;;;8.80;74.70;;;;;;5102437;28;20035;-59
2022/11/17 00:37:10;;;;;;;16.65;5.50;;;8.80;74.80;;;;;;5082136;28;20101;-58
2022/11/17 00:39:36;;;;;;;18.45;6.03;;;8.80;74.80;;;;;;5105271;28;20059;-58
2022/11/17 00:42:02;;;;;;;21.27;5.93;;;8.80;74.80;;;;;;5103151;28;20031;-58
2022/11/17 00:44:28;;;;;;;11.60;5.45;;;8.80;74.70;;;;;;5086497;28;20024;-59
2022/11/17 00:46:54;;;;;;;13.00;6.18;;;8.80;74.70;;;;;;5101052;28;20057;-59
2022/11/17 00:49:23;;;;;;;16.55;5.90;;;8.80;74.70;;;;;;5103261;28;20063;-58
2022/11/17 00:51:50;;;;;;;9.15;5.45;;;8.80;74.70;;;;;;5033586;28;20031;-58
2022/11/17 00:54:16;;;;;;;17.90;5.65;;;8.80;74.80;;;;;;5106347;28;20153;-59
2022/11/17 00:56:41;;;;;;;13.57;5.88;;;8.80;74.70;;;;;;5099843;28;20036;-61
2022/11/17 00:59:07;;;;;;;13.18;5.63;;;8.90;74.90;;;;;;5098989;28;20020;-58
2022/11/17 01:01:33;;;;;;;9.80;5.68;;;8.90;74.90;;;;;;5107576;28;20028;-58
2022/11/17 01:04:02;;;;;;;15.80;5.82;;;8.90;75.00;;;;;;5098342;28;20059;-58
2022/11/17 01:06:45;;;;;;;10.88;5.85;;;8.90;74.90;;;;;;5101498;28;20362;-58
2022/11/17 01:09:14;;;;;;;9.32;5.63;;;8.90;75.20;;;;;;5106243;28;20179;-58
2022/11/17 01:11:41;;;;;;;9.90;5.40;;;8.90;74.70;;;;;;5106037;28;20051;-59
2022/11/17 01:14:11;;;;;;;11.25;5.40;;;8.90;74.60;;;;;;5101938;28;20028;-58
2022/11/17 01:16:37;;;;;;;13.73;5.38;;;8.90;74.70;;;;;;5098409;28;20045;-58
2022/11/17 01:19:03;;;;;;;11.13;5.57;;;8.90;74.50;;;;;;5084899;28;20020;-58
2022/11/17 01:21:30;;;;;;;10.40;5.70;;;8.90;74.60;;;;;;5100951;28;20478;-59
2022/11/17 01:23:57;;;;;;;12.65;5.85;;;8.90;74.60;;;;;;5106116;28;20493;-59
2022/11/17 01:26:28;;;;;;;13.20;5.82;;;8.90;74.50;;;;;;5111207;28;20367;-58
2022/11/17 01:28:55;;;;;;;15.13;6.20;;;8.90;74.30;;;;;;5099471;28;20085;-58
2022/11/17 01:31:24;;;;;;;12.50;6.10;;;8.90;74.20;;;;;;5091841;28;20039;-60
2022/11/17 01:33:50;;;;;;;8.30;5.72;;;8.80;74.30;;;;;;5101280;28;20107;-60
2022/11/17 01:36:19;;;;;;;9.32;5.60;;;8.80;74.60;;;;;;5083290;28;20070;-60
2022/11/17 01:38:45;;;;;;;11.45;5.95;;;8.80;74.80;;;;;;5100477;28;20024;-58
2022/11/17 01:41:20;;;;;;;11.57;5.75;;;8.80;74.90;;;;;;5096315;28;20051;-60
2022/11/17 01:43:50;;;;;;;8.52;5.55;;;8.80;75.20;;;;;;5098093;28;20023;-59
2022/11/17 01:46:26;;;;;;;8.35;6.13;;;8.80;75.20;;;;;;5102326;28;20046;-60
2022/11/17 01:48:55;;;;;;;12.50;5.55;;;8.80;75.20;;;;;;5096645;28;20161;-58
2022/11/17 01:51:21;;;;;;;7.40;5.22;;;8.90;75.30;;;;;;5078967;28;20016;-61
2022/11/17 01:53:49;;;;;;;7.45;5.20;;;8.90;75.30;;;;;;5092556;28;20421;-58
2022/11/17 01:56:21;;;;;;;10.30;4.88;;;8.90;75.20;;;;;;5100193;28;20464;-59
2022/11/17 01:58:53;;;;;;;5.88;4.53;;;8.90;75.20;;;;;;5095864;28;20016;-60
2022/11/17 02:01:19;;;;;;;6.72;4.40;;;8.90;75.10;;;;;;5101599;28;20110;-60
2022/11/17 02:03:48;;;;;;;5.32;4.47;;;8.90;74.90;;;;;;5104613;28;20043;-60
2022/11/17 02:06:34;;;;;;;7.45;4.28;;;8.90;74.90;;;;;;5101578;28;20028;-59
2022/11/17 02:09:02;;;;;;;4.75;3.85;;;9.00;75.00;;;;;;5101402;28;20080;-57
2022/11/17 02:11:34;;;;;;;6.18;4.35;;;9.00;74.60;;;;;;5099973;28;20020;-58
2022/11/17 02:14:02;;;;;;;4.53;3.97;;;8.90;74.60;;;;;;5102635;28;20047;-59
2022/11/17 02:16:27;;;;;;;5.70;4.22;;;8.90;74.80;;;;;;5106302;28;20020;-58
2022/11/17 02:18:53;;;;;;;7.75;4.35;;;8.90;74.80;;;;;;5100231;28;20032;-58
2022/11/17 02:21:42;;;;;;;7.28;4.57;;;9.00;74.60;;;;;;5111498;28;20050;-57
2022/11/17 02:24:41;;;;;;;7.00;4.40;;;9.00;75.10;;;;;;5108616;28;20058;-59
2022/11/17 02:27:48;;;;;;;6.78;4.70;;;9.00;74.80;;;;;;5104298;28;20083;-59
2022/11/17 02:30:19;;;;;;;6.05;4.63;;;9.00;74.90;;;;;;5026367;28;20053;-60
2022/11/17 02:33:12;;;;;;;6.38;4.90;;;9.00;74.60;;;;;;5037720;28;20025;-59
2022/11/17 02:35:50;;;;;;;6.68;4.55;;;8.90;74.90;;;;;;5043499;28;20461;-58
2022/11/17 02:38:27;;;;;;;5.63;4.75;;;8.90;74.60;;;;;;5041130;28;20028;-58
2022/11/17 02:41:03;;;;;;;6.05;4.43;;;8.90;74.80;;;;;;5035970;28;20129;-59
2022/11/17 02:46:24;;;;;;;5.38;4.00;;;8.90;74.80;;;;;;5046651;28;20580;-58
2022/11/17 02:49:04;;;;;;;4.68;4.15;;;8.90;74.70;;;;;;5037035;28;20119;-60
2022/11/17 02:51:31;;;;;;;6.97;4.70;;;9.00;75.00;;;;;;4958015;28;20030;-59
2022/11/17 02:53:58;;;;;;;5.43;4.38;;;9.00;74.80;;;;;;5039482;28;20041;-57
2022/11/17 02:56:24;;;;;;;5.57;4.22;;;9.00;74.80;;;;;;5036656;28;20097;-60
2022/11/17 02:58:55;;;;;;;5.18;4.20;;;9.00;74.90;;;;;;5035565;28;20045;-58
2022/11/17 03:01:21;;;;;;;6.28;4.40;;;9.00;74.80;;;;;;5037389;28;20063;-58
2022/11/17 03:03:49;;;;;;;5.05;4.22;;;9.00;74.60;;;;;;5037379;28;20029;-58
2022/11/17 03:06:40;;;;;;;4.95;4.45;;;9.00;74.60;;;;;;5065844;28;20486;-59
2022/11/17 03:09:31;;;;;;;7.93;4.78;;;9.00;75.00;;;;;;5102674;28;20020;-59
2022/11/17 03:12:22;;;;;;;5.22;4.18;;;9.00;74.60;;;;;;5106956;28;20036;-60
2022/11/17 03:14:56;;;;;;;6.40;3.97;;;9.00;74.80;;;;;;5083025;28;20028;-58
2022/11/17 03:17:35;;;;;;;5.00;4.20;;;9.00;74.50;;;;;;5104513;28;20498;-58
2022/11/17 03:20:15;;;;;;;4.10;3.42;;;8.90;74.70;;;;;;5097693;28;20020;-57
2022/11/17 03:23:00;;;;;;;4.60;3.58;;;8.90;75.00;;;;;;5107334;28;20026;-59
2022/11/17 03:25:27;;;;;;;5.35;4.20;;;8.90;74.80;;;;;;5105245;28;20075;-59
2022/11/17 03:28:15;;;;;;;5.78;3.80;;;9.00;74.80;;;;;;5097097;28;20043;-60
2022/11/17 03:30:46;;;;;;;5.13;3.70;;;9.00;74.90;;;;;;5081245;28;20051;-58
2022/11/17 03:33:19;;;;;;;4.53;3.97;;;8.90;74.80;;;;;;5072226;28;20035;-58
2022/11/17 03:36:15;;;;;;;5.05;3.83;;;8.90;74.70;;;;;;5081696;28;20028;-58
2022/11/17 03:38:49;;;;;;;5.22;3.63;;;8.90;75.30;;;;;;5075835;28;20502;-58
2022/11/17 03:41:16;;;;;;;5.93;3.60;;;8.90;74.90;;;;;;5070187;28;20201;-58
2022/11/17 03:43:44;;;;;;;4.22;3.38;;;8.90;74.70;;;;;;5087121;28;20024;-59
2022/11/17 03:46:14;;;;;;;5.68;3.58;;;8.90;74.70;;;;;;5083154;28;20550;-58
2022/11/17 03:49:16;;;;;;;4.00;3.35;;;8.90;74.80;;;;;;5072060;28;20040;-60
2022/11/17 03:51:42;;;;;;;4.32;3.58;;;9.00;75.40;;;;;;5082925;28;20052;-60
2022/11/17 03:54:09;;;;;;;3.70;3.35;;;8.90;74.80;;;;;;5083261;28;20087;-60
2022/11/17 03:56:58;;;;;;;4.60;3.88;;;8.90;74.90;;;;;;5084001;28;20067;-59
2022/11/17 03:59:33;;;;;;;4.15;3.75;;;8.90;75.30;;;;;;5081825;28;20527;-60
2022/11/17 04:01:59;;;;;;;4.47;3.80;;;9.10;75.10;;;;;;5091308;28;20040;-58
2022/11/17 04:05:04;;;;;;;5.85;4.13;;;8.90;74.90;;;;;;5086489;28;20027;-58
2022/11/17 04:07:10;;;;;;;4.47;3.85;;;8.90;75.00;;;;;;5103888;28;20031;-60
2022/11/17 04:09:35;;;;;;;4.65;3.75;;;8.90;75.00;;;;;;5102329;28;20157;-59
2022/11/17 04:17:29;;;;;;;3.03;2.72;;;8.90;74.60;;;;;;5102337;28;20125;-59
2022/11/17 04:19:55;;;;;;;4.60;4.10;;;8.90;74.70;;;;;;5100330;28;20438;-58
2022/11/17 04:22:21;;;;;;;4.55;4.13;;;8.90;74.80;;;;;;5104411;28;20047;-60
2022/11/17 04:24:46;;;;;;;5.05;4.10;;;8.90;75.00;;;;;;5097092;28;20028;-58
2022/11/17 04:29:56;;;;;;;4.82;4.18;;;8.90;75.20;;;;;;5104653;28;20096;-58
2022/11/17 04:32:22;;;;;;;4.13;3.58;;;8.90;75.10;;;;;;5086208;28;20088;-58
2022/11/17 04:34:47;;;;;;;4.47;3.42;;;8.90;75.00;;;;;;5097158;28;20016;-58
2022/11/17 04:37:16;;;;;;;3.65;3.35;;;8.90;75.00;;;;;;5111199;28;20023;-58
2022/11/17 04:39:43;;;;;;;3.88;3.47;;;8.90;75.00;;;;;;5106729;28;20084;-59
2022/11/17 04:42:09;;;;;;;6.50;3.97;;;8.90;75.00;;;;;;5110770;28;20035;-58
2022/11/17 04:44:34;;;;;;;4.15;3.40;;;8.90;75.10;;;;;;5101919;28;20016;-58
2022/11/17 04:47:02;;;;;;;4.88;3.22;;;8.90;75.10;;;;;;5108569;28;20052;-59
2022/11/17 04:49:30;;;;;;;3.92;3.53;;;9.00;75.30;;;;;;5102078;28;20115;-57
2022/11/17 04:51:55;;;;;;;5.30;3.72;;;9.00;75.30;;;;;;5093409;28;20061;-59
2022/11/17 04:54:25;;;;;;;4.57;3.70;;;9.00;75.30;;;;;;5096434;28;20036;-58
2022/11/17 04:56:51;;;;;;;5.90;3.45;;;9.00;75.30;;;;;;5107669;28;20016;-59
2022/11/17 04:59:17;;;;;;;5.93;4.40;;;9.00;75.20;;;;;;5102866;28;20057;-60
2022/11/17 05:01:43;;;;;;;5.93;4.25;;;9.00;75.10;;;;;;5098477;28;20080;-59
2022/11/17 05:04:11;;;;;;;5.80;4.28;;;9.00;75.00;;;;;;5108411;28;20024;-58
2022/11/17 05:06:38;;;;;;;6.68;4.75;;;9.00;75.00;;;;;;5108370;28;20058;-57
2022/11/17 05:09:12;;;;;;;5.45;4.40;;;9.00;74.90;;;;;;5108429;28;20076;-59
2022/11/17 05:14:23;;;;;;;5.60;4.30;;;9.00;75.10;;;;;;5105245;28;20038;-59
2022/11/17 05:17:08;;;;;;;8.65;5.20;;;9.00;75.00;;;;;;5103100;28;20543;-58
2022/11/17 05:19:43;;;;;;;7.15;4.47;;;9.00;74.80;;;;;;5100942;28;20020;-59
2022/11/17 05:24:55;;;;;;;4.25;3.78;;;9.00;75.10;;;;;;5104077;28;20406;-58
2022/11/17 05:27:22;;;;;;;5.20;3.90;;;8.90;75.20;;;;;;5106373;28;20035;-58
2022/11/17 05:29:48;;;;;;;5.20;3.90;;;8.90;75.50;;;;;;5102227;28;20040;-59
2022/11/17 05:32:13;;;;;;;5.93;4.15;;;8.90;75.40;;;;;;5107798;28;20031;-58
2022/11/17 05:34:39;;;;;;;4.65;3.80;;;8.90;75.50;;;;;;5108877;28;20024;-58
2022/11/17 05:37:05;;;;;;;4.53;3.10;;;8.90;75.40;;;;;;5101558;28;20054;-58
2022/11/17 05:39:31;;;;;;;4.70;3.40;;;8.90;75.50;;;;;;5108927;28;20081;-58
2022/11/17 05:41:57;;;;;;;4.07;3.45;;;8.90;75.60;;;;;;5105798;28;20053;-61
2022/11/17 05:44:23;;;;;;;4.20;3.65;;;8.90;75.70;;;;;;5103836;28;20024;-59
2022/11/17 05:46:48;;;;;;;3.80;3.40;;;9.00;76.40;;;;;;5105821;28;20105;-58
2022/11/17 05:49:14;;;;;;;5.10;3.78;;;9.00;75.60;;;;;;5107455;28;20035;-58
2022/11/17 05:51:39;;;;;;;4.80;4.20;;;9.00;75.40;;;;;;5106992;28;20020;-58
2022/11/17 05:54:05;;;;;;;4.35;3.47;;;9.00;75.40;;;;;;5090354;28;20028;-58
2022/11/17 05:56:40;;;;;;;3.95;3.35;;;9.00;75.50;;;;;;5106005;28;20028;-59
2022/11/17 05:59:08;;;;;;;4.45;3.38;;;9.00;75.50;;;;;;5109976;28;20035;-59
2022/11/17 06:01:38;;;;;;;3.65;3.33;;;9.00;75.60;;;;;;5116422;28;20715;-59
2022/11/17 06:04:06;;;;;;;4.20;3.47;;;9.00;75.40;;;;;;5108308;28;20020;-58
2022/11/17 06:06:34;;;;;;;4.90;3.78;;;9.00;75.20;;;;;;5107617;28;20027;-59
2022/11/17 06:09:00;;;;;;;4.28;3.35;;;9.00;75.30;;;;;;5103307;28;20028;-57
2022/11/17 06:11:26;;;;;;;3.85;3.42;;;9.00;75.30;;;;;;5107767;28;20047;-58
2022/11/17 06:13:52;;;;;;;4.55;3.80;;;9.00;75.50;;;;;;5107219;28;20058;-57
2022/11/17 06:16:20;;;;;;;4.63;3.95;;;8.90;75.30;;;;;;5089177;28;20036;-57
2022/11/17 06:18:59;;;;;;;4.85;3.80;;;8.90;75.50;;;;;;5108900;28;20030;-58
2022/11/17 06:21:25;;;;;;;5.07;3.60;;;8.90;75.60;;;;;;5107016;28;20028;-59
2022/11/17 06:23:50;;;;;;;5.50;3.80;;;9.00;75.70;;;;;;5103931;28;20071;-58
2022/11/17 06:26:16;;;;;;;6.78;3.75;;;8.90;75.60;;;;;;5115185;28;20039;-59
2022/11/17 06:28:45;;;;;;;5.72;3.97;;;9.00;75.50;;;;;;5113175;28;20085;-59
2022/11/17 06:31:12;;;;;;;4.57;3.78;;;9.00;75.60;;;;;;5107052;28;20089;-58
2022/11/17 06:33:38;;;;;;;5.80;3.92;;;8.90;75.50;;;;;;5108892;28;20026;-58
2022/11/17 06:36:05;;;;;;;5.15;4.22;;;9.00;75.60;;;;;;5088672;28;20467;-58
2022/11/17 06:38:34;;;;;;;5.50;4.10;;;9.00;75.70;;;;;;5113796;28;20020;-58
2022/11/17 06:41:01;;;;;;;5.40;3.90;;;8.90;75.60;;;;;;5110107;28;20028;-59
2022/11/17 06:43:26;;;;;;;4.00;3.60;;;9.00;75.70;;;;;;5102879;28;20354;-58
2022/11/17 06:45:52;;;;;;;4.30;3.70;;;9.00;75.70;;;;;;5109878;28;20031;-59
2022/11/17 06:48:25;;;;;;;6.30;3.65;;;9.00;75.80;;;;;;5111025;28;20105;-58
2022/11/17 06:50:53;;;;;;;4.13;3.67;;;9.00;76.00;;;;;;5106171;28;20040;-58
2022/11/17 06:53:25;;;;;;;5.93;3.90;;;9.00;76.00;;;;;;5100880;28;20505;-58
2022/11/17 06:58:27;;;;;;;8.82;4.50;;;9.10;76.10;;;;;;5106828;28;20028;-59
2022/11/17 07:00:53;;;;;;;5.22;4.40;;;9.10;76.10;;;;;;5114356;28;20028;-58
2022/11/17 07:03:18;;;;;;;6.00;4.88;;;9.10;76.00;;;;;;5095879;28;20099;-59
2022/11/17 07:05:45;;;;;;;8.00;4.82;;;9.20;76.00;;;;;;5112952;28;20542;-58
2022/11/17 07:08:13;;;;;;;7.20;5.28;;;9.20;76.00;;;;;;5105899;28;20081;-60
2022/11/17 07:10:39;;;;;;;7.38;5.00;;;9.20;75.90;;;;;;5111634;28;20036;-59
2022/11/17 07:13:04;;;;;;;10.07;5.15;;;9.20;75.90;;;;;;5113067;28;20781;-61
2022/11/17 07:15:30;;;;;;;9.90;5.22;;;9.20;76.00;;;;;;5107590;28;20111;-58
2022/11/17 07:17:57;;;;;;;8.82;4.90;;;9.30;76.10;;;;;;5106258;28;20035;-59
2022/11/17 07:20:23;;;;;;;5.88;4.50;;;9.30;76.10;;;;;;5109080;28;20099;-59
2022/11/17 07:22:48;;;;;;;5.53;4.43;;;9.40;76.20;;;;;;5105652;28;20024;-59
2022/11/17 07:25:14;;;;;;;8.48;4.22;;;9.40;76.10;;;;;;5102136;28;20039;-59
2022/11/17 07:27:40;;;;;;;6.88;4.50;;;9.40;76.00;;;;;;5089628;28;20113;-59
2022/11/17 07:30:06;;;;;;;6.20;4.65;;;9.50;75.90;;;;;;5091928;28;20046;-60
2022/11/17 07:32:35;;;;;;;6.82;4.68;;;9.50;75.90;;;;;;5102886;28;20024;-58
2022/11/17 07:35:01;;;;;;;5.47;4.47;;;9.50;75.90;;;;;;5101633;28;20070;-60
2022/11/17 07:37:32;;;;;;;5.97;4.22;;;9.60;75.80;;;;;;5101759;28;20024;-59
2022/11/17 07:39:58;;;;;;;9.23;4.63;;;9.60;75.80;;;;;;5103259;28;20031;-59
2022/11/17 07:42:24;;;;;;;6.82;4.47;;;9.60;75.70;;;;;;5109343;28;20016;-58
2022/11/17 07:44:49;;;;;;;6.00;4.22;;;9.60;75.70;;;;;;5104434;28;20048;-59
2022/11/17 07:47:15;;;;;;;8.27;4.72;;;9.60;75.70;;;;;;5106583;28;20052;-59
2022/11/17 07:49:41;;;;;;;9.65;4.78;;;9.60;75.60;;;;;;5110217;28;20032;-59
2022/11/17 07:52:06;;;;;;;8.07;5.38;;;9.60;75.60;;;;;;5106633;28;20446;-58
2022/11/17 07:54:32;;;;;;;9.50;6.45;;;9.60;75.60;;;;;;5112600;28;20931;-59
2022/11/17 07:56:58;;;;;;;16.92;9.05;;;9.70;75.70;;;;;;5101775;28;20410;-65
2022/11/17 08:04:30;;;;;;;18.77;11.45;;;9.70;75.80;;;;;;5098174;28;20059;-64
2022/11/17 08:06:56;;;;;;;22.30;12.52;;;9.70;75.90;;;;;;5094504;28;20106;-63
2022/11/17 08:09:22;;;;;;;19.30;13.15;;;9.70;75.90;;;;;;5094644;28;20032;-63
2022/11/17 08:11:48;;;;;;;17.23;12.10;;;9.80;75.90;;;;;;5104658;28;20016;-64
2022/11/17 08:14:13;;;;;;;16.30;11.02;;;9.70;75.80;;;;;;5104717;28;20036;-64
2022/11/17 08:16:39;;;;;;;15.07;9.80;;;9.80;75.90;;;;;;5095057;28;20492;-63
2022/11/17 08:19:05;;;;;;;13.45;9.40;;;9.80;75.80;;;;;;5091298;28;20417;-63
2022/11/17 08:21:31;;;;;;;16.83;10.93;;;9.80;75.80;;;;;;5103164;28;20606;-64
2022/11/17 08:23:56;;;;;;;16.70;11.57;;;9.90;75.90;;;;;;5097850;28;20400;-64
2022/11/17 08:26:24;;;;;;;15.25;10.65;;;9.90;76.10;;;;;;5111680;28;20031;-65
2022/11/17 08:28:49;;;;;;;14.95;10.18;;;9.90;76.10;;;;;;5080633;28;20020;-64
2022/11/17 08:31:15;;;;;;;14.13;10.25;;;10.00;76.20;;;;;;5076835;28;20032;-63
2022/11/17 08:33:41;;;;;;;15.70;10.43;;;10.00;76.40;;;;;;5104752;28;20040;-63
2022/11/17 08:36:07;;;;;;;13.90;10.13;;;10.10;76.80;;;;;;5105983;28;20032;-65
2022/11/17 08:38:32;;;;;;;16.95;9.48;;;10.20;76.90;;;;;;5103814;28;20046;-65
2022/11/17 08:41:01;;;;;;;13.13;9.07;;;10.30;76.50;;;;;;5084493;28;20085;-64
2022/11/17 08:43:27;;;;;;;15.90;10.15;;;10.30;76.40;;;;;;5105039;28;20024;-63
2022/11/17 08:45:53;;;;;;;16.10;10.30;;;10.40;75.90;;;;;;5080143;28;20051;-64
2022/11/17 08:48:19;;;;;;;13.15;9.18;;;10.40;76.00;;;;;;5097457;28;20051;-63
2022/11/17 08:50:45;;;;;;;13.73;8.77;;;10.40;75.90;;;;;;5104767;28;20027;-63
2022/11/17 08:53:18;;;;;;;11.93;8.02;;;10.40;76.10;;;;;;5085190;28;20418;-63
2022/11/17 08:55:44;;;;;;;10.52;7.20;;;10.50;76.30;;;;;;5100900;28;20028;-65
2022/11/17 08:58:13;;;;;;;12.43;6.60;;;10.50;76.10;;;;;;5101293;28;20078;-64
2022/11/17 09:00:39;;;;;;;11.02;7.20;;;10.50;76.20;;;;;;5099337;28;20077;-63
2022/11/17 09:03:07;;;;;;;8.77;6.32;;;10.50;76.30;;;;;;5101335;28;20063;-64
2022/11/17 09:05:35;;;;;;;8.68;6.50;;;10.50;76.30;;;;;;5106015;28;20028;-63
2022/11/17 09:08:01;;;;;;;17.38;8.10;;;10.60;76.40;;;;;;5103028;28;20020;-64
2022/11/17 09:10:27;;;;;;;13.85;7.68;;;10.60;76.50;;;;;;5099822;28;20036;-63
2022/11/17 09:12:55;;;;;;;17.17;9.20;;;10.70;76.50;;;;;;5102706;28;20077;-63
2022/11/17 09:15:22;;;;;;;21.00;12.18;;;10.70;76.50;;;;;;5106078;28;20027;-66
2022/11/17 09:17:48;;;;;;;22.73;10.75;;;10.80;76.40;;;;;;5105532;28;20339;-63
2022/11/17 09:20:15;;;;;;;14.68;8.05;;;10.80;76.40;;;;;;5109471;28;20043;-64
2022/11/17 09:22:41;;;;;;;13.75;5.68;;;10.90;76.40;;;;;;5093941;28;20402;-65
2022/11/17 09:25:07;;;;;;;13.77;6.38;;;10.90;76.40;;;;;;5108791;28;20043;-63
2022/11/17 09:27:33;;;;;;;7.40;5.38;;;10.90;76.50;;;;;;5097240;28;20053;-64
2022/11/17 09:29:59;;;;;;;9.30;5.85;;;10.90;76.30;;;;;;5109003;28;20050;-63
2022/11/17 09:32:25;;;;;;;9.00;5.35;;;10.90;76.40;;;;;;5086240;28;20065;-63
2022/11/17 09:34:51;;;;;;;7.95;5.40;;;10.90;76.10;;;;;;5107408;28;20045;-63
2022/11/17 09:37:17;;;;;;;11.10;4.97;;;11.00;76.40;;;;;;5101574;28;20031;-67
2022/11/17 09:39:43;;;;;;;8.57;4.55;;;11.00;76.30;;;;;;5096270;28;20038;-63
2022/11/17 09:42:13;;;;;;;6.45;4.47;;;11.10;76.50;;;;;;5107219;28;20032;-64
2022/11/17 09:45:03;;;;;;;7.15;4.55;;;11.10;76.90;;;;;;5100736;28;20013;-64
2022/11/17 09:47:37;;;;;;;7.40;4.40;;;11.10;77.50;;;;;;5100724;28;20024;-63
2022/11/17 09:50:23;;;;;;;;;;;11.20;77.10;;;;;;5088811;28;20032;-64
2022/11/17 09:53:11;;;;;;;6.70;3.17;;;11.20;77.70;;;;;;5102321;28;19908;-64
2022/11/17 09:55:47;;;;;;;6.38;3.55;;;11.30;76.50;;;;;;5101516;28;20046;-65
2022/11/17 09:58:30;;;;;;;4.80;2.85;;;11.30;77.00;;;;;;5097263;28;20446;-63
2022/11/17 10:00:56;;;;;;;5.22;2.85;;;11.40;76.90;;;;;;5098416;28;20104;-63
2022/11/17 10:03:33;;;;;;;6.85;2.90;;;11.40;76.90;;;;;;5097540;28;20124;-63
2022/11/17 10:06:05;;;;;;;7.85;3.20;;;11.50;76.90;;;;;;5102085;28;20024;-65
2022/11/17 10:08:57;;;;;;;6.05;2.92;;;11.60;76.90;;;;;;5098569;28;20051;-65
2022/11/17 10:11:31;;;;;;;5.47;3.10;;;11.60;76.80;;;;;;5102736;28;20485;-65
2022/11/17 10:14:00;;;;;;;6.40;2.97;;;11.60;76.70;;;;;;5105342;28;20031;-64
2022/11/17 10:16:26;;;;;;;3.90;2.70;;;11.70;76.60;;;;;;5106053;28;20035;-63
2022/11/17 10:18:52;;;;;;;6.13;3.40;;;11.70;76.40;;;;;;5096736;28;20109;-64
2022/11/17 10:21:17;;;;;;;7.53;3.35;;;11.70;76.40;;;;;;5099876;28;20020;-64
2022/11/17 10:23:48;;;;;;;5.93;3.38;;;11.80;76.40;;;;;;5097648;28;20034;-64
2022/11/17 10:26:15;;;;;;;6.88;3.80;;;11.80;76.40;;;;;;5098677;28;20095;-64
2022/11/17 10:28:41;;;;;;;7.40;3.88;;;11.80;76.40;;;;;;5102337;28;20031;-63
2022/11/17 10:31:09;;;;;;;5.43;3.63;;;11.80;76.30;;;;;;5101058;28;20028;-63
2022/11/17 10:33:41;;;;;;;6.00;3.20;;;11.80;76.30;;;;;;5100435;28;20032;-63
2022/11/17 10:36:33;;;;;;;4.97;3.45;;;11.90;76.30;;;;;;5101257;28;20032;-63
2022/11/17 10:38:59;;;;;;;6.95;4.05;;;11.90;76.60;;;;;;5107780;28;20047;-63
2022/11/17 10:41:34;;;;;;;4.93;3.20;;;11.90;76.20;;;;;;5103131;28;20055;-64
2022/11/17 10:44:13;;;;;;;4.65;2.95;;;11.90;76.10;;;;;;5083342;28;20363;-64
2022/11/17 10:46:59;;;;;;;4.20;2.97;;;12.00;76.30;;;;;;5101134;28;20016;-65
2022/11/17 10:49:32;;;;;;;5.53;3.15;;;12.00;76.60;;;;;;5110743;28;20036;-63
2022/11/17 10:52:10;;;;;;;5.97;2.83;;;12.00;76.30;;;;;;5108344;28;20043;-64
2022/11/17 10:54:36;;;;;;;3.92;2.58;;;12.10;76.60;;;;;;5108574;28;20626;-63
2022/11/17 10:57:22;;;;;;;5.60;3.20;;;12.10;76.40;;;;;;5106991;28;20028;-64
2022/11/17 10:59:52;;;;;;;4.40;2.35;;;12.20;76.50;;;;;;5101328;28;20031;-64
2022/11/17 11:02:34;;;;;;;4.05;2.50;;;12.20;76.50;;;;;;5108178;28;20026;-64
2022/11/17 11:05:11;;;;;;;5.38;2.67;;;12.30;76.50;;;;;;5109956;28;20079;-63
2022/11/17 11:07:38;;;;;;;5.00;3.05;;;12.40;76.60;;;;;;5117269;28;20044;-64
2022/11/17 11:10:32;;;;;;;5.85;3.03;;;12.50;76.40;;;;;;5114015;28;20043;-65
2022/11/17 11:13:18;;;;;;;5.07;2.85;;;12.50;76.30;;;;;;5108983;28;20110;-65
2022/11/17 11:15:44;;;;;;;5.00;3.08;;;12.60;76.00;;;;;;5085181;28;20040;-63
2022/11/17 11:18:15;;;;;;;5.30;3.20;;;12.60;75.60;;;;;;5085032;28;20060;-64
2022/11/17 11:21:03;;;;;;;4.22;2.65;;;12.60;75.70;;;;;;5104305;28;20024;-64
2022/11/17 11:23:53;;;;;;;4.72;2.95;;;12.70;75.60;;;;;;5099636;28;20020;-64
2022/11/17 11:26:54;;;;;;;4.15;2.92;;;12.70;75.60;;;;;;5106077;28;20036;-64
2022/11/17 11:29:40;;;;;;;6.45;3.05;;;12.80;75.50;;;;;;5095336;28;20455;-65
2022/11/17 11:32:31;;;;;;;9.38;3.60;;;12.80;75.50;;;;;;5101303;28;20084;-64
2022/11/17 11:35:29;;;;;;;6.60;3.72;;;12.90;75.40;;;;;;5105332;28;20505;-64
2022/11/17 11:38:21;;;;;;;5.13;3.25;;;13.00;75.60;;;;;;5107296;28;20053;-63
2022/11/17 11:41:27;;;;;;;7.05;3.35;;;13.10;75.60;;;;;;5101634;28;20021;-62
2022/11/17 11:44:15;;;;;;;8.05;2.65;;;13.20;75.30;;;;;;5100134;28;20040;-65
2022/11/17 11:46:49;;;;;;;5.70;2.65;;;13.30;75.10;;;;;;5107745;28;20865;-65
2022/11/17 11:49:29;;;;;;;6.70;2.17;;;13.30;75.00;;;;;;5105034;28;20413;-65
2022/11/17 11:51:56;;;;;;;5.63;2.60;;;13.40;74.70;;;;;;5104895;28;20035;-66
2022/11/17 11:54:40;;;;;;;5.35;3.00;;;13.50;74.80;;;;;;5113682;28;20024;-65
2022/11/17 11:57:11;;;;;;;3.25;2.10;;;13.60;74.30;;;;;;5100536;28;20531;-64
2022/11/17 11:59:51;;;;;;;4.40;2.40;;;13.70;74.30;;;;;;5105480;28;20024;-65
2022/11/17 12:02:25;;;;;;;4.05;2.42;;;13.80;73.90;;;;;;5100893;28;20160;-65
2022/11/17 12:05:09;;;;;;;3.15;2.00;;;13.90;74.00;;;;;;5105302;28;20059;-63
2022/11/17 12:07:38;;;;;;;;;;;14.00;73.50;;;;;;5084832;28;20146;-64
2022/11/17 12:10:10;;;;;;;4.57;1.83;;;14.10;73.50;;;;;;5104059;28;19959;-64
2022/11/17 12:12:39;;;;;;;6.00;1.67;;;14.10;72.80;;;;;;5092411;28;20048;-63
2022/11/17 12:15:29;;;;;;;5.63;1.55;;;14.20;71.90;;;;;;5107600;28;20024;-64
2022/11/17 12:18:27;;;;;;;4.43;1.38;;;14.20;70.80;;;;;;5107606;28;20554;-64
2022/11/17 12:21:03;;;;;;;4.57;1.35;;;14.20;70.40;;;;;;5107604;28;20032;-63
2022/11/17 12:23:41;;;;;;;7.72;1.80;;;14.20;70.70;;;;;;5093748;28;20024;-65
2022/11/17 12:26:18;;;;;;;5.97;1.42;;;14.20;70.10;;;;;;5101408;28;20044;-64
2022/11/17 12:28:44;;;;;;;9.68;2.05;;;14.30;70.70;;;;;;5104886;28;20028;-64
2022/11/17 12:31:31;;;;;;;4.18;1.35;;;14.40;70.60;;;;;;5101173;28;20046;-65
2022/11/17 12:34:00;;;;;;;6.43;1.27;;;14.50;70.40;;;;;;5098001;28;20040;-62
2022/11/17 12:36:31;;;;;;;5.30;1.75;;;14.70;69.80;;;;;;5087803;28;20035;-64
2022/11/17 12:38:58;;;;;;;4.43;1.67;;;14.80;69.70;;;;;;5106007;28;20031;-65
2022/11/17 12:41:48;;;;;;;5.47;1.60;;;15.00;69.00;;;;;;5108832;28;20035;-64
2022/11/17 12:44:36;;;;;;;9.35;1.85;;;15.10;67.20;;;;;;5098215;28;20039;-64
2022/11/17 12:47:23;;;;;;;5.82;1.55;;;15.20;66.40;;;;;;5107448;28;20035;-64
2022/11/17 12:50:16;;;;;;;8.18;2.00;;;15.30;65.70;;;;;;5103086;28;20039;-64
2022/11/17 12:53:03;;;;;;;7.13;2.05;;;15.40;65.30;;;;;;5099605;28;20155;-63
2022/11/17 12:55:31;;;;;;;7.95;2.20;;;15.50;64.90;;;;;;5093434;28;20053;-63
2022/11/17 12:58:22;;;;;;;7.05;2.08;;;15.50;65.50;;;;;;5097735;28;20036;-64
2022/11/17 13:01:03;;;;;;;6.82;1.90;;;15.50;65.00;;;;;;5079009;28;20032;-63
2022/11/17 13:03:47;;;;;;;7.10;1.95;;;15.60;65.70;;;;;;5099907;28;20061;-63
2022/11/17 13:06:15;;;;;;;7.07;1.80;;;15.60;64.90;;;;;;5086210;28;20111;-64
2022/11/17 13:08:58;;;;;;;10.57;2.33;;;15.60;65.70;;;;;;5099519;28;20109;-64
2022/11/17 13:11:24;;;;;;;8.05;1.75;;;15.60;64.60;;;;;;5100283;28;20032;-65
2022/11/17 13:14:15;;;;;;;6.95;2.13;;;15.60;65.40;;;;;;5098507;28;20023;-65
2022/11/17 13:16:46;;;;;;;6.47;1.80;;;15.60;64.40;;;;;;5096779;28;20028;-63
2022/11/17 13:19:37;;;;;;;5.63;1.67;;;15.50;65.00;;;;;;5097379;28;20039;-63
2022/11/17 13:22:15;;;;;;;4.90;1.67;;;15.50;64.90;;;;;;5098057;28;20025;-65
2022/11/17 13:24:47;;;;;;;9.85;1.67;;;15.50;65.00;;;;;;5098147;28;20495;-62
2022/11/17 13:27:29;;;;;;;6.47;1.80;;;15.60;65.50;;;;;;5096441;28;20491;-65
2022/11/17 13:30:25;;;;;;;13.52;2.10;;;15.60;64.30;;;;;;5091772;28;20032;-63
2022/11/17 13:32:51;;;;;;;4.78;1.70;;;15.60;64.20;;;;;;5106374;28;20034;-63
2022/11/17 13:35:27;;;;;;;10.98;1.85;;;15.70;65.00;;;;;;5110775;28;20028;-66
2022/11/17 13:38:18;;;;;;;10.57;2.03;;;15.70;62.40;;;;;;5102610;28;20165;-64
2022/11/17 13:40:46;;;;;;;9.15;2.05;;;15.70;62.40;;;;;;5096844;28;20020;-63
2022/11/17 13:43:19;;;;;;;6.78;2.00;;;15.80;63.40;;;;;;5095297;28;20121;-63
2022/11/17 13:45:50;;;;;;;7.28;2.17;;;15.80;63.00;;;;;;5103005;28;20080;-64
2022/11/17 13:48:39;;;;;;;7.78;1.90;;;15.90;62.60;;;;;;5096677;28;20063;-63